createdAt,value
2019-04-16T00:00:24.893Z,0
2019-04-16T00:01:25.128Z,0
2019-04-16T00:02:27.659Z,0
2019-04-16T00:03:29.889Z,0
2019-04-16T00:04:29.344Z,0
2019-04-16T00:05:30.026Z,0
2019-04-16T00:06:25.331Z,0
2019-04-16T00:07:24.902Z,0
2019-04-16T00:08:36.212Z,0
2019-04-16T00:09:25.068Z,0
2019-04-16T00:10:24.805Z,0
2019-04-16T00:11:24.810Z,0
2019-04-16T00:12:24.813Z,0
2019-04-16T00:13:24.796Z,0
2019-04-16T00:14:25.028Z,0
2019-04-16T00:15:25.015Z,0
2019-04-16T00:16:25.265Z,0
2019-04-16T00:17:25.777Z,0
2019-04-16T00:18:27.608Z,0
2019-04-16T00:19:24.737Z,0
2019-04-16T00:20:24.787Z,0
2019-04-16T00:21:24.756Z,0
2019-04-16T00:22:24.521Z,0
2019-04-16T00:23:24.717Z,0
2019-04-16T00:24:27.599Z,0
2019-04-16T00:25:24.709Z,0
2019-04-16T00:26:29.088Z,0
2019-04-16T00:27:28.175Z,0
2019-04-16T00:28:25.189Z,0
2019-04-16T00:29:24.938Z,0
2019-04-16T00:30:24.401Z,0
2019-04-16T00:31:24.900Z,0
2019-04-16T00:32:28.163Z,0
2019-04-16T00:33:24.656Z,0
2019-04-16T00:34:24.643Z,0
2019-04-16T00:35:25.764Z,0
2019-04-16T00:36:27.846Z,0
2019-04-16T00:37:29.648Z,0
2019-04-16T00:38:43.054Z,0
2019-04-16T00:39:28.944Z,0
2019-04-16T00:40:28.874Z,0
2019-04-16T00:41:24.836Z,0
2019-04-16T00:42:24.333Z,0
2019-04-16T00:43:24.818Z,0
2019-04-16T00:44:24.618Z,0
2019-04-16T00:45:25.043Z,0
2019-04-16T00:46:25.042Z,0
2019-04-16T00:47:24.050Z,0
2019-04-16T00:48:25.029Z,0
2019-04-16T00:49:28.550Z,0
2019-04-16T00:50:24.790Z,0
2019-04-16T00:51:25.020Z,0
2019-04-16T00:52:25.093Z,0
2019-04-16T00:53:24.256Z,0
2019-04-16T00:54:24.497Z,0
2019-04-16T00:55:24.215Z,0
2019-04-16T00:56:26.151Z,0
2019-04-16T00:57:27.649Z,0
2019-04-16T00:58:28.937Z,0
2019-04-16T00:59:28.529Z,0
2019-04-16T01:00:27.602Z,0
2019-04-16T01:01:24.441Z,0
2019-04-16T01:02:24.721Z,0
2019-04-16T01:03:24.410Z,0
2019-04-16T01:04:25.669Z,0
2019-04-16T01:05:24.895Z,0
2019-04-16T01:06:24.391Z,0
2019-04-16T01:07:24.400Z,0
2019-04-16T01:08:24.888Z,0
2019-04-16T01:09:24.617Z,0
2019-04-16T01:10:24.847Z,0
2019-04-16T01:11:24.607Z,0
2019-04-16T01:12:24.596Z,0
2019-04-16T01:13:28.482Z,0
2019-04-16T01:14:28.979Z,0
2019-04-16T01:15:24.092Z,0
2019-04-16T01:16:24.576Z,0
2019-04-16T01:17:24.315Z,0
2019-04-16T01:18:24.297Z,0
2019-04-16T01:19:24.329Z,0
2019-04-16T01:20:24.538Z,0
2019-04-16T01:21:24.771Z,0
2019-04-16T01:22:25.415Z,0
2019-04-16T01:23:27.412Z,0
2019-04-16T01:24:28.903Z,0
2019-04-16T01:25:29.816Z,0
2019-04-16T01:26:28.646Z,0
2019-04-16T01:27:28.502Z,0
2019-04-16T01:28:24.217Z,0
2019-04-16T01:29:23.946Z,0
2019-04-16T01:30:24.685Z,0
2019-04-16T01:31:24.702Z,0
2019-04-16T01:32:24.708Z,0
2019-04-16T01:33:24.903Z,0
2019-04-16T01:34:31.616Z,0
2019-04-16T01:35:28.458Z,0
2019-04-16T01:36:26.035Z,0
2019-04-16T01:37:28.070Z,0
2019-04-16T01:38:27.599Z,0
2019-04-16T01:39:27.728Z,0
2019-04-16T01:40:27.400Z,0
2019-04-16T01:41:28.726Z,0
2019-04-16T01:42:28.001Z,0
2019-04-16T01:43:28.039Z,0
2019-04-16T01:44:28.403Z,0
2019-04-16T01:45:24.084Z,0
2019-04-16T01:46:24.324Z,0
2019-04-16T01:47:24.075Z,0
2019-04-16T01:48:24.544Z,0
2019-04-16T01:49:24.541Z,0
2019-04-16T01:50:24.295Z,0
2019-04-16T01:51:24.941Z,0
2019-04-16T01:52:28.334Z,0
2019-04-16T01:53:26.432Z,0
2019-04-16T01:54:27.479Z,0
2019-04-16T01:55:27.885Z,0
2019-04-16T01:56:27.665Z,0
2019-04-16T01:57:24.311Z,0
2019-04-16T01:58:23.965Z,0
2019-04-16T01:59:23.718Z,0
2019-04-16T02:00:24.439Z,0
2019-04-16T02:01:24.197Z,0
2019-04-16T02:02:24.773Z,0
2019-04-16T02:03:26.810Z,0
2019-04-16T02:04:28.979Z,0
2019-04-16T02:05:27.323Z,0
2019-04-16T02:06:28.228Z,0
2019-04-16T02:07:27.611Z,0
2019-04-16T02:08:24.127Z,0
2019-04-16T02:09:36.783Z,0
2019-04-16T02:10:24.110Z,0
2019-04-16T02:11:24.131Z,0
2019-04-16T02:12:24.345Z,0
2019-04-16T02:13:25.489Z,0
2019-04-16T02:14:29.543Z,0
2019-04-16T02:15:28.647Z,0
2019-04-16T02:16:27.215Z,0
2019-04-16T02:17:29.249Z,0
2019-04-16T02:18:24.057Z,0
2019-04-16T02:19:23.566Z,0
2019-04-16T02:20:24.048Z,0
2019-04-16T02:21:24.277Z,0
2019-04-16T02:22:23.779Z,0
2019-04-16T02:23:26.068Z,0
2019-04-16T02:24:27.722Z,0
2019-04-16T02:25:28.058Z,0
2019-04-16T02:26:27.716Z,0
2019-04-16T02:27:28.342Z,0
2019-04-16T02:28:30.277Z,0
2019-04-16T02:29:24.282Z,0
2019-04-16T02:30:24.273Z,0
2019-04-16T02:31:25.958Z,0
2019-04-16T02:32:24.211Z,0
2019-04-16T02:33:24.199Z,0
2019-04-16T02:34:24.280Z,0
2019-04-16T02:35:27.808Z,0
2019-04-16T02:36:23.690Z,0
2019-04-16T02:37:23.894Z,0
2019-04-16T02:38:24.154Z,0
2019-04-16T02:39:50.568Z,0
2019-04-16T02:40:28.037Z,0
2019-04-16T02:41:28.043Z,0
2019-04-16T02:42:30.230Z,0
2019-04-16T02:43:23.608Z,0
2019-04-16T02:44:26.270Z,0
2019-04-16T02:45:29.809Z,0
2019-04-16T02:46:30.315Z,0
2019-04-16T02:47:23.823Z,0
2019-04-16T02:48:26.444Z,0
2019-04-16T02:49:29.802Z,0
2019-04-16T02:50:30.153Z,0
2019-04-16T02:51:23.796Z,0
2019-04-16T02:52:26.042Z,0
2019-04-16T02:53:29.157Z,0
2019-04-16T02:54:23.560Z,0
2019-04-16T02:55:23.801Z,0
2019-04-16T02:56:28.321Z,0
2019-04-16T02:57:30.755Z,0
2019-04-16T02:58:23.500Z,0
2019-04-16T02:59:23.985Z,0
2019-04-16T03:00:27.392Z,0
2019-04-16T03:01:27.858Z,0
2019-04-16T03:02:27.437Z,0
2019-04-16T03:03:27.019Z,0
2019-04-16T03:04:26.641Z,0
2019-04-16T03:05:23.693Z,0
2019-04-16T03:06:26.567Z,0
2019-04-16T03:07:23.437Z,0
2019-04-16T03:08:23.140Z,0
2019-04-16T03:09:23.639Z,0
2019-04-16T03:10:23.896Z,0
2019-04-16T03:11:27.141Z,0
2019-04-16T03:12:27.477Z,0
2019-04-16T03:13:27.849Z,0
2019-04-16T03:14:23.328Z,0
2019-04-16T03:15:23.108Z,0
2019-04-16T03:16:23.568Z,0
2019-04-16T03:17:23.585Z,0
2019-04-16T03:18:25.017Z,0
2019-04-16T03:19:28.648Z,0
2019-04-16T03:20:27.933Z,0
2019-04-16T03:21:24.452Z,0
2019-04-16T03:22:23.539Z,0
2019-04-16T03:23:23.513Z,0
2019-04-16T03:24:23.246Z,0
2019-04-16T03:25:24.003Z,0
2019-04-16T03:26:27.155Z,0
2019-04-16T03:27:29.156Z,0
2019-04-16T03:28:29.034Z,0
2019-04-16T03:29:23.454Z,0
2019-04-16T03:30:23.811Z,0
2019-04-16T03:31:30.944Z,0
2019-04-16T03:32:33.096Z,0
2019-04-16T03:33:24.604Z,0
2019-04-16T03:34:28.190Z,0
2019-04-16T03:35:27.722Z,0
2019-04-16T03:36:23.140Z,0
2019-04-16T03:37:23.152Z,0
2019-04-16T03:38:23.140Z,0
2019-04-16T03:39:23.314Z,0
2019-04-16T03:40:32.013Z,0
2019-04-16T03:41:24.855Z,0
2019-04-16T03:42:24.386Z,0
2019-04-16T03:43:23.337Z,0
2019-04-16T03:44:23.579Z,0
2019-04-16T03:45:22.620Z,0
2019-04-16T03:46:23.567Z,0
2019-04-16T03:47:27.925Z,0
2019-04-16T03:48:26.727Z,0
2019-04-16T03:49:24.492Z,0
2019-04-16T03:50:23.268Z,0
2019-04-16T03:51:23.336Z,0
2019-04-16T03:52:23.536Z,0
2019-04-16T03:53:27.031Z,0
2019-04-16T03:54:28.682Z,0
2019-04-16T03:55:27.834Z,0
2019-04-16T03:56:23.006Z,0
2019-04-16T03:57:23.221Z,0
2019-04-16T03:58:22.962Z,0
2019-04-16T03:59:23.194Z,0
2019-04-16T04:00:23.205Z,0
2019-04-16T04:01:24.428Z,0
2019-04-16T04:02:29.413Z,0
2019-04-16T04:03:28.352Z,0
2019-04-16T04:04:22.656Z,0
2019-04-16T04:05:23.399Z,0
2019-04-16T04:06:23.392Z,0
2019-04-16T04:07:25.597Z,0
2019-04-16T04:08:26.975Z,0
2019-04-16T04:09:28.733Z,0
2019-04-16T04:10:41.678Z,0
2019-04-16T04:11:22.840Z,0
2019-04-16T04:12:23.277Z,0
2019-04-16T04:13:26.968Z,0
2019-04-16T04:14:27.274Z,0
2019-04-16T04:15:28.618Z,0
2019-04-16T04:16:22.573Z,0
2019-04-16T04:17:22.814Z,0
2019-04-16T04:18:22.905Z,0
2019-04-16T04:19:25.223Z,0
2019-04-16T04:20:26.907Z,0
2019-04-16T04:21:27.953Z,0
2019-04-16T04:22:27.721Z,0
2019-04-16T04:23:25.387Z,0
2019-04-16T04:24:23.003Z,0
2019-04-16T04:25:22.742Z,0
2019-04-16T04:26:23.192Z,5
2019-04-16T04:27:28.275Z,5
2019-04-16T04:28:28.026Z,5
2019-04-16T04:29:28.390Z,5
2019-04-16T04:30:22.439Z,5
2019-04-16T04:31:22.922Z,5
2019-04-16T04:32:23.465Z,5
2019-04-16T04:33:22.887Z,10
2019-04-16T04:34:25.984Z,10
2019-04-16T04:35:27.136Z,10
2019-04-16T04:36:31.211Z,10
2019-04-16T04:37:22.415Z,10
2019-04-16T04:38:22.914Z,15
2019-04-16T04:39:24.963Z,15
2019-04-16T04:40:25.991Z,15
2019-04-16T04:41:27.409Z,15
2019-04-16T04:42:28.240Z,15
2019-04-16T04:43:22.804Z,20
2019-04-16T04:44:23.363Z,20
2019-04-16T04:45:22.894Z,20
2019-04-16T04:46:24.331Z,20
2019-04-16T04:47:27.361Z,25
2019-04-16T04:48:27.759Z,25
2019-04-16T04:49:22.531Z,25
2019-04-16T04:50:22.478Z,30
2019-04-16T04:51:21.988Z,30
2019-04-16T04:52:27.265Z,30
2019-04-16T04:53:27.517Z,30
2019-04-16T04:54:26.353Z,35
2019-04-16T04:55:23.341Z,35
2019-04-16T04:56:30.026Z,35
2019-04-16T04:57:22.426Z,40
2019-04-16T04:58:22.705Z,40
2019-04-16T04:59:21.923Z,40
2019-04-16T05:00:22.921Z,50
2019-04-16T05:01:23.342Z,55
2019-04-16T05:02:24.436Z,55
2019-04-16T05:03:25.901Z,60
2019-04-16T05:04:26.496Z,60
2019-04-16T05:05:27.207Z,70
2019-04-16T05:06:26.695Z,75
2019-04-16T05:07:25.627Z,80
2019-04-16T05:08:22.114Z,85
2019-04-16T05:09:22.311Z,90
2019-04-16T05:10:22.140Z,95
2019-04-16T05:11:25.789Z,100
2019-04-16T05:12:27.669Z,105
2019-04-16T05:13:27.024Z,105
2019-04-16T05:14:24.889Z,110
2019-04-16T05:15:22.583Z,115
2019-04-16T05:16:22.744Z,115
2019-04-16T05:17:22.443Z,120
2019-04-16T05:18:22.667Z,125
2019-04-16T05:19:24.414Z,125
2019-04-16T05:20:25.518Z,130
2019-04-16T05:21:26.974Z,130
2019-04-16T05:22:25.471Z,135
2019-04-16T05:23:27.162Z,135
2019-04-16T05:24:22.530Z,135
2019-04-16T05:25:22.622Z,130
2019-04-16T05:26:22.474Z,115
2019-04-16T05:27:22.809Z,105
2019-04-16T05:28:22.903Z,100
2019-04-16T05:29:26.737Z,100
2019-04-16T05:30:27.586Z,100
2019-04-16T05:31:26.870Z,100
2019-04-16T05:32:25.632Z,105
2019-04-16T05:33:22.422Z,105
2019-04-16T05:34:24.828Z,105
2019-04-16T05:35:21.705Z,105
2019-04-16T05:36:28.175Z,110
2019-04-16T05:37:26.195Z,110
2019-04-16T05:38:27.728Z,115
2019-04-16T05:39:24.334Z,115
2019-04-16T05:40:22.422Z,115
2019-04-16T05:41:30.320Z,115
2019-04-16T05:42:27.424Z,115
2019-04-16T05:43:29.957Z,120
2019-04-16T05:44:22.844Z,120
2019-04-16T05:45:22.335Z,195
2019-04-16T05:46:22.455Z,195
2019-04-16T05:47:26.383Z,200
2019-04-16T05:48:25.599Z,200
2019-04-16T05:49:27.466Z,200
2019-04-16T05:50:22.202Z,200
2019-04-16T05:51:21.859Z,205
2019-04-16T05:52:21.856Z,205
2019-04-16T05:53:23.177Z,215
2019-04-16T05:54:22.920Z,215
2019-04-16T05:55:26.531Z,130
2019-04-16T05:56:27.666Z,180
2019-04-16T05:57:25.595Z,170
2019-04-16T05:58:22.322Z,160
2019-04-16T05:59:22.321Z,160
2019-04-16T06:00:22.686Z,155
2019-04-16T06:01:23.363Z,150
2019-04-16T06:02:27.523Z,145
2019-04-16T06:03:25.190Z,145
2019-04-16T06:04:26.949Z,170
2019-04-16T06:05:26.734Z,170
2019-04-16T06:06:22.274Z,140
2019-04-16T06:07:22.498Z,140
2019-04-16T06:08:24.017Z,140
2019-04-16T06:09:23.241Z,140
2019-04-16T06:10:26.860Z,140
2019-04-16T06:11:43.008Z,140
2019-04-16T06:12:22.407Z,140
2019-04-16T06:13:22.744Z,150
2019-04-16T06:14:30.443Z,150
2019-04-16T06:15:25.937Z,180
2019-04-16T06:16:26.834Z,190
2019-04-16T06:17:21.767Z,195
2019-04-16T06:18:25.058Z,180
2019-04-16T06:19:22.113Z,180
2019-04-16T06:20:26.870Z,180
2019-04-16T06:21:27.865Z,185
2019-04-16T06:22:23.654Z,195
2019-04-16T06:23:21.975Z,210
2019-04-16T06:24:22.246Z,220
2019-04-16T06:25:22.860Z,230
2019-04-16T06:26:26.011Z,225
2019-04-16T06:27:22.938Z,250
2019-04-16T06:28:22.089Z,250
2019-04-16T06:29:21.458Z,235
2019-04-16T06:30:22.232Z,240
2019-04-16T06:31:22.241Z,245
2019-04-16T06:32:21.966Z,250
2019-04-16T06:33:22.458Z,245
2019-04-16T06:34:24.117Z,250
2019-04-16T06:35:21.951Z,250
2019-04-16T06:36:21.969Z,250
2019-04-16T06:37:31.975Z,265
2019-04-16T06:38:22.450Z,265
2019-04-16T06:39:22.269Z,270
2019-04-16T06:40:22.504Z,265
2019-04-16T06:41:22.253Z,260
2019-04-16T06:42:26.251Z,260
2019-04-16T06:43:28.164Z,265
2019-04-16T06:44:22.438Z,265
2019-04-16T06:45:22.172Z,265
2019-04-16T06:46:21.973Z,265
2019-04-16T06:47:22.447Z,265
2019-04-16T06:48:23.427Z,210
2019-04-16T06:49:26.295Z,270
2019-04-16T06:50:44.652Z,285
2019-04-16T06:51:22.687Z,290
2019-04-16T06:52:26.401Z,275
2019-04-16T06:53:30.224Z,280
2019-04-16T06:54:25.097Z,280
2019-04-16T06:55:22.299Z,280
2019-04-16T06:56:25.139Z,280
2019-04-16T06:57:21.969Z,285
2019-04-16T06:58:30.288Z,285
2019-04-16T06:59:30.699Z,295
2019-04-16T07:00:22.659Z,295
2019-04-16T07:01:25.069Z,295
2019-04-16T07:02:24.251Z,300
2019-04-16T07:03:25.745Z,315
2019-04-16T07:04:22.989Z,310
2019-04-16T07:05:22.181Z,315
2019-04-16T07:06:21.795Z,315
2019-04-16T07:07:24.533Z,315
2019-04-16T07:08:41.862Z,305
2019-04-16T07:09:40.709Z,305
2019-04-16T07:10:22.360Z,310
2019-04-16T07:11:22.453Z,310
2019-04-16T07:12:22.503Z,310
2019-04-16T07:13:22.000Z,310
2019-04-16T07:14:25.857Z,320
2019-04-16T07:15:31.098Z,315
2019-04-16T07:16:22.716Z,315
2019-04-16T07:17:24.955Z,315
2019-04-16T07:18:25.419Z,305
2019-04-16T07:19:24.493Z,285
2019-04-16T07:20:23.923Z,270
2019-04-16T07:21:26.335Z,260
2019-04-16T07:22:27.851Z,250
2019-04-16T07:23:27.046Z,245
2019-04-16T07:24:29.908Z,245
2019-04-16T07:25:29.189Z,235
2019-04-16T07:26:24.419Z,230
2019-04-16T07:27:26.792Z,230
2019-04-16T07:28:27.739Z,230
2019-04-16T07:29:23.192Z,225
2019-04-16T07:30:27.337Z,230
2019-04-16T07:31:40.310Z,250
2019-04-16T07:32:22.965Z,260
2019-04-16T07:33:22.008Z,280
2019-04-16T07:34:22.710Z,300
2019-04-16T07:35:22.171Z,300
2019-04-16T07:36:24.125Z,305
2019-04-16T07:37:22.262Z,305
2019-04-16T07:38:22.263Z,295
2019-04-16T07:39:41.850Z,290
2019-04-16T07:40:22.023Z,290
2019-04-16T07:41:24.147Z,275
2019-04-16T07:42:33.503Z,260
2019-04-16T07:43:25.097Z,245
2019-04-16T07:44:22.508Z,240
2019-04-16T07:45:22.782Z,235
2019-04-16T07:46:22.529Z,245
2019-04-16T07:47:27.042Z,250
2019-04-16T07:48:25.324Z,255
2019-04-16T07:49:23.393Z,265
2019-04-16T07:50:22.269Z,240
2019-04-16T07:51:22.280Z,275
2019-04-16T07:52:22.290Z,275
2019-04-16T07:53:23.840Z,275
2019-04-16T07:54:26.162Z,275
2019-04-16T07:55:23.601Z,275
2019-04-16T07:56:22.435Z,280
2019-04-16T07:57:22.745Z,285
2019-04-16T07:58:22.533Z,290
2019-04-16T07:59:22.285Z,295
2019-04-16T08:00:23.333Z,290
2019-04-16T08:01:25.802Z,290
2019-04-16T08:02:28.109Z,295
2019-04-16T08:03:23.512Z,300
2019-04-16T08:04:40.207Z,295
2019-04-16T08:05:22.535Z,290
2019-04-16T08:06:23.481Z,290
2019-04-16T08:07:27.500Z,290
2019-04-16T08:08:26.868Z,290
2019-04-16T08:09:22.318Z,290
2019-04-16T08:10:26.613Z,290
2019-04-16T08:11:25.372Z,295
2019-04-16T08:12:41.827Z,280
2019-04-16T08:13:23.472Z,235
2019-04-16T08:14:24.021Z,290
2019-04-16T08:15:24.836Z,290
2019-04-16T08:16:22.332Z,290
2019-04-16T08:17:22.614Z,290
2019-04-16T08:18:22.514Z,290
2019-04-16T08:19:39.107Z,290
2019-04-16T08:20:27.309Z,290
2019-04-16T08:21:25.110Z,290
2019-04-16T08:22:25.679Z,290
2019-04-16T08:23:26.482Z,265
2019-04-16T08:24:26.951Z,290
2019-04-16T08:25:22.362Z,290
2019-04-16T08:26:22.952Z,290
2019-04-16T08:27:27.333Z,285
2019-04-16T08:28:22.359Z,285
2019-04-16T08:29:21.888Z,275
2019-04-16T08:30:22.384Z,275
2019-04-16T08:31:22.552Z,265
2019-04-16T08:32:28.313Z,280
2019-04-16T08:33:22.642Z,275
2019-04-16T08:34:22.389Z,285
2019-04-16T08:35:22.635Z,285
2019-04-16T08:36:22.408Z,280
2019-04-16T08:37:22.394Z,275
2019-04-16T08:38:21.924Z,280
2019-04-16T08:39:22.421Z,265
2019-04-16T08:40:22.667Z,260
2019-04-16T08:41:29.147Z,265
2019-04-16T08:42:29.413Z,260
2019-04-16T08:43:22.183Z,260
2019-04-16T08:44:22.463Z,265
2019-04-16T08:45:25.423Z,265
2019-04-16T08:46:22.864Z,265
2019-04-16T08:47:22.700Z,270
2019-04-16T08:48:26.549Z,270
2019-04-16T08:49:29.384Z,275
2019-04-16T08:50:25.760Z,275
2019-04-16T08:51:41.880Z,270
2019-04-16T08:52:22.921Z,270
2019-04-16T08:53:23.575Z,270
2019-04-16T08:54:27.276Z,270
2019-04-16T08:55:27.777Z,265
2019-04-16T08:56:22.685Z,270
2019-04-16T08:57:22.437Z,265
2019-04-16T08:58:22.459Z,270
2019-04-16T08:59:22.211Z,270
2019-04-16T09:00:24.833Z,270
2019-04-16T09:01:30.736Z,265
2019-04-16T09:02:23.454Z,270
2019-04-16T09:03:26.754Z,275
2019-04-16T09:04:22.733Z,270
2019-04-16T09:05:22.284Z,270
2019-04-16T09:06:24.009Z,270
2019-04-16T09:07:27.427Z,270
2019-04-16T09:08:26.705Z,275
2019-04-16T09:09:31.431Z,270
2019-04-16T09:10:34.983Z,270
2019-04-16T09:11:39.924Z,270
2019-04-16T09:12:22.899Z,270
2019-04-16T09:13:24.529Z,275
2019-04-16T09:14:30.422Z,275
2019-04-16T09:15:22.679Z,275
2019-04-16T09:16:21.941Z,275
2019-04-16T09:17:22.462Z,280
2019-04-16T09:18:22.685Z,275
2019-04-16T09:19:22.457Z,265
2019-04-16T09:20:25.487Z,275
2019-04-16T09:21:22.494Z,275
2019-04-16T09:22:26.167Z,270
2019-04-16T09:25:06.490Z,270
2019-04-16T09:25:22.214Z,275
2019-04-16T09:26:29.775Z,270
2019-04-16T09:27:20.383Z,270
2019-04-16T09:28:35.934Z,270
2019-04-16T09:29:19.555Z,270
2019-04-16T09:30:24.213Z,270
2019-04-16T09:31:18.717Z,265
2019-04-16T09:32:16.434Z,265
2019-04-16T09:33:16.348Z,265
2019-04-16T09:34:16.362Z,265
2019-04-16T09:35:26.997Z,265
2019-04-16T09:36:16.361Z,265
2019-04-16T09:37:16.090Z,260
2019-04-16T09:38:21.475Z,260
2019-04-16T09:39:16.390Z,260
2019-04-16T09:40:26.964Z,260
2019-04-16T09:41:16.110Z,260
2019-04-16T09:42:16.346Z,255
2019-04-16T09:43:26.371Z,255
2019-04-16T09:44:16.375Z,255
2019-04-16T09:45:16.115Z,255
2019-04-16T09:46:59.361Z,255
2019-04-16T09:47:16.079Z,255
2019-04-16T09:48:16.091Z,255
2019-04-16T09:49:16.084Z,255
2019-04-16T09:50:21.024Z,255
2019-04-16T09:51:21.539Z,255
2019-04-16T09:52:16.398Z,255
2019-04-16T09:53:16.711Z,250
2019-04-16T09:54:22.242Z,250
2019-04-16T09:55:19.892Z,250
2019-04-16T09:56:16.125Z,250
2019-04-16T09:57:15.873Z,250
2019-04-16T09:58:16.570Z,235
2019-04-16T09:59:21.878Z,250
2019-04-16T10:00:22.213Z,245
2019-04-16T10:01:16.372Z,245
2019-04-16T10:02:15.870Z,245
2019-04-16T10:03:15.895Z,245
2019-04-16T10:04:16.265Z,245
2019-04-16T10:05:16.128Z,245
2019-04-16T10:06:16.196Z,240
2019-04-16T10:07:15.921Z,245
2019-04-16T10:08:21.571Z,245
2019-04-16T10:09:23.239Z,245
2019-04-16T10:10:15.912Z,245
2019-04-16T10:11:18.483Z,245
2019-04-16T10:12:17.748Z,245
2019-04-16T10:13:29.345Z,245
2019-04-16T10:14:15.975Z,240
2019-04-16T10:15:16.549Z,240
2019-04-16T10:16:18.848Z,240
2019-04-16T10:17:16.145Z,245
2019-04-16T10:18:16.673Z,245
2019-04-16T10:19:20.962Z,245
2019-04-16T10:20:16.593Z,250
2019-04-16T10:21:21.214Z,245
2019-04-16T10:22:16.413Z,245
2019-04-16T10:23:16.609Z,250
2019-04-16T10:24:18.468Z,245
2019-04-16T10:25:16.637Z,250
2019-04-16T10:26:16.409Z,245
2019-04-16T10:27:16.429Z,245
2019-04-16T10:28:16.213Z,245
2019-04-16T10:29:16.420Z,245
2019-04-16T10:30:15.947Z,245
2019-04-16T10:31:16.448Z,245
2019-04-16T10:32:17.577Z,245
2019-04-16T10:33:16.183Z,245
2019-04-16T10:34:15.723Z,245
2019-04-16T10:35:16.200Z,240
2019-04-16T10:36:16.155Z,240
2019-04-16T10:37:15.943Z,240
2019-04-16T10:38:18.640Z,240
2019-04-16T10:39:16.478Z,240
2019-04-16T10:40:16.186Z,240
2019-04-16T10:41:16.179Z,240
2019-04-16T10:42:16.018Z,240
2019-04-16T10:43:16.521Z,240
2019-04-16T10:44:16.175Z,245
2019-04-16T10:45:15.935Z,245
2019-04-16T10:46:19.168Z,240
2019-04-16T10:47:22.825Z,240
2019-04-16T10:48:15.941Z,235
2019-04-16T10:49:16.191Z,230
2019-04-16T10:50:16.485Z,230
2019-04-16T10:51:19.977Z,215
2019-04-16T10:52:16.175Z,235
2019-04-16T10:53:16.222Z,235
2019-04-16T10:54:16.476Z,230
2019-04-16T10:55:23.241Z,230
2019-04-16T10:56:20.646Z,230
2019-04-16T10:57:19.621Z,230
2019-04-16T10:58:16.486Z,230
2019-04-16T10:59:16.230Z,230
2019-04-16T11:00:15.980Z,230
2019-04-16T11:01:16.075Z,230
2019-04-16T11:02:19.272Z,225
2019-04-16T11:03:15.705Z,225
2019-04-16T11:04:17.455Z,225
2019-04-16T11:05:21.054Z,225
2019-04-16T11:06:16.200Z,225
2019-04-16T11:07:15.462Z,225
2019-04-16T11:08:17.359Z,225
2019-04-16T11:09:16.201Z,225
2019-04-16T11:10:19.009Z,225
2019-04-16T11:11:16.204Z,225
2019-04-16T11:12:19.515Z,225
2019-04-16T11:13:17.899Z,220
2019-04-16T11:14:15.950Z,220
2019-04-16T11:15:16.249Z,225
2019-04-16T11:16:16.240Z,225
2019-04-16T11:17:16.019Z,225
2019-04-16T11:18:16.329Z,225
2019-04-16T11:19:16.522Z,225
2019-04-16T11:20:16.281Z,225
2019-04-16T11:21:16.108Z,220
2019-04-16T11:22:15.996Z,220
2019-04-16T11:23:17.543Z,225
2019-04-16T11:24:20.380Z,220
2019-04-16T11:25:16.239Z,220
2019-04-16T11:26:16.386Z,220
2019-04-16T11:27:16.405Z,225
2019-04-16T11:28:18.819Z,220
2019-04-16T11:29:16.473Z,225
2019-04-16T11:30:16.171Z,225
2019-04-16T11:31:16.461Z,225
2019-04-16T11:32:16.898Z,225
2019-04-16T11:33:16.484Z,225
2019-04-16T11:34:15.993Z,225
2019-04-16T11:35:25.244Z,225
2019-04-16T11:36:33.236Z,230
2019-04-16T11:37:18.121Z,230
2019-04-16T11:38:20.115Z,225
2019-04-16T11:39:16.511Z,225
2019-04-16T11:40:16.738Z,225
2019-04-16T11:41:16.438Z,225
2019-04-16T11:42:16.515Z,225
2019-04-16T11:43:16.786Z,225
2019-04-16T11:44:24.533Z,225
2019-04-16T11:45:16.681Z,225
2019-04-16T11:46:16.494Z,225
2019-04-16T11:47:16.222Z,230
2019-04-16T11:48:16.442Z,225
2019-04-16T11:49:16.949Z,220
2019-04-16T11:50:16.356Z,220
2019-04-16T11:51:16.505Z,230
2019-04-16T11:52:15.992Z,230
2019-04-16T11:53:16.965Z,230
2019-04-16T11:54:18.952Z,230
2019-04-16T11:55:16.790Z,225
2019-04-16T11:56:16.454Z,235
2019-04-16T11:57:20.423Z,195
2019-04-16T11:58:16.742Z,230
2019-04-16T11:59:15.696Z,235
2019-04-16T12:00:18.231Z,235
2019-04-16T12:01:16.809Z,240
2019-04-16T12:02:16.548Z,240
2019-04-16T12:03:16.277Z,240
2019-04-16T12:04:21.745Z,240
2019-04-16T12:05:16.254Z,235
2019-04-16T12:06:31.539Z,230
2019-04-16T12:07:16.739Z,230
2019-04-16T12:08:16.516Z,235
2019-04-16T12:09:16.558Z,235
2019-04-16T12:10:16.815Z,235
2019-04-16T12:11:16.242Z,235
2019-04-16T12:12:16.207Z,235
2019-04-16T12:13:17.346Z,235
2019-04-16T12:14:41.828Z,235
2019-04-16T12:15:16.281Z,240
2019-04-16T12:16:16.653Z,240
2019-04-16T12:17:16.232Z,240
2019-04-16T12:18:16.626Z,245
2019-04-16T12:19:16.048Z,245
2019-04-16T12:20:16.217Z,245
2019-04-16T12:21:16.746Z,250
2019-04-16T12:22:16.016Z,260
2019-04-16T12:23:16.093Z,255
2019-04-16T12:24:18.526Z,260
2019-04-16T12:25:16.594Z,270
2019-04-16T12:26:19.135Z,270
2019-04-16T12:27:16.769Z,240
2019-04-16T12:28:21.393Z,235
2019-04-16T12:29:16.530Z,235
2019-04-16T12:30:16.356Z,265
2019-04-16T12:31:19.287Z,225
2019-04-16T12:32:16.931Z,220
2019-04-16T12:33:21.134Z,225
2019-04-16T12:34:16.296Z,225
2019-04-16T12:35:16.974Z,220
2019-04-16T12:36:20.698Z,220
2019-04-16T12:37:15.876Z,220
2019-04-16T12:38:25.456Z,230
2019-04-16T12:39:21.963Z,245
2019-04-16T12:40:21.630Z,245
2019-04-16T12:41:16.130Z,240
2019-04-16T12:42:16.587Z,245
2019-04-16T12:43:21.711Z,240
2019-04-16T12:44:16.553Z,245
2019-04-16T12:45:19.219Z,250
2019-04-16T12:46:16.358Z,225
2019-04-16T12:47:16.638Z,220
2019-04-16T12:48:16.110Z,215
2019-04-16T12:49:15.770Z,215
2019-04-16T12:50:19.351Z,215
2019-04-16T12:51:16.632Z,215
2019-04-16T12:52:24.779Z,220
2019-04-16T12:53:16.677Z,210
2019-04-16T12:54:16.131Z,210
2019-04-16T12:55:16.103Z,210
2019-04-16T12:56:18.755Z,210
2019-04-16T12:57:21.277Z,215
2019-04-16T12:58:18.850Z,220
2019-04-16T12:59:15.955Z,230
2019-04-16T13:00:16.351Z,230
2019-04-16T13:01:19.531Z,240
2019-04-16T13:02:21.752Z,250
2019-04-16T13:03:21.188Z,255
2019-04-16T13:04:15.943Z,250
2019-04-16T13:05:20.827Z,255
2019-04-16T13:06:16.196Z,250
2019-04-16T13:07:16.229Z,245
2019-04-16T13:08:16.192Z,245
2019-04-16T13:09:15.719Z,240
2019-04-16T13:10:15.718Z,240
2019-04-16T13:11:18.480Z,240
2019-04-16T13:12:19.088Z,240
2019-04-16T13:13:16.444Z,240
2019-04-16T13:14:17.223Z,240
2019-04-16T13:15:16.189Z,240
2019-04-16T13:16:16.699Z,240
2019-04-16T13:17:20.743Z,245
2019-04-16T13:18:16.656Z,245
2019-04-16T13:19:16.190Z,245
2019-04-16T13:20:16.034Z,245
2019-04-16T13:21:15.972Z,245
2019-04-16T13:22:15.732Z,245
2019-04-16T13:23:16.330Z,240
2019-04-16T13:24:16.383Z,235
2019-04-16T13:25:16.583Z,235
2019-04-16T13:26:21.238Z,235
2019-04-16T13:27:16.699Z,240
2019-04-16T13:28:16.187Z,245
2019-04-16T13:29:19.666Z,245
2019-04-16T13:30:16.054Z,250
2019-04-16T13:31:15.967Z,250
2019-04-16T13:32:16.581Z,255
2019-04-16T13:33:16.544Z,250
2019-04-16T13:34:20.629Z,255
2019-04-16T13:35:16.531Z,250
2019-04-16T13:36:16.330Z,250
2019-04-16T13:37:16.448Z,255
2019-04-16T13:38:18.832Z,255
2019-04-16T13:39:15.962Z,260
2019-04-16T13:40:16.488Z,265
2019-04-16T13:41:15.963Z,265
2019-04-16T13:42:15.988Z,265
2019-04-16T13:43:16.742Z,265
2019-04-16T13:44:21.772Z,270
2019-04-16T13:45:33.097Z,275
2019-04-16T13:46:16.135Z,275
2019-04-16T13:47:16.280Z,280
2019-04-16T13:48:32.168Z,285
2019-04-16T13:49:16.218Z,285
2019-04-16T13:50:15.715Z,285
2019-04-16T13:51:25.815Z,290
2019-04-16T13:52:25.237Z,295
2019-04-16T13:53:15.977Z,300
2019-04-16T13:54:15.991Z,300
2019-04-16T13:55:19.611Z,310
2019-04-16T13:56:20.213Z,315
2019-04-16T13:57:16.225Z,335
2019-04-16T13:58:15.968Z,340
2019-04-16T13:59:16.457Z,350
2019-04-16T14:00:15.986Z,355
2019-04-16T14:01:19.157Z,360
2019-04-16T14:02:20.215Z,355
2019-04-16T14:03:16.245Z,355
2019-04-16T14:04:16.473Z,350
2019-04-16T14:05:19.824Z,350
2019-04-16T14:06:19.543Z,345
2019-04-16T14:07:16.535Z,330